tititudorancea.com
Station Historical Data
Daily Summary for April 27, 2018 Units:  Metric    English   Both
« Previous Day
Next Day »
Daily Weekly Monthly Yearly Custom
  High: Low: Average:
Temperature: -17.8 °C 3.7 °C 10.7 °C
Dew Point: -17.8 °C 2.7 °C 6.7 °C
Humidity: Humidity % 54 % 78 %
Wind Speed: 0 km/h 0 km/h 6.8 km/h
Wind Gust: 0 km/h - -
Wind:- - South
Pressure: 0 hPa 1023.9 hPa -
Precipitation: 0.25 mm    
Historical Graphs
 
 
Ararat weather Find more about Weather in Ararat, AU


 



 


Tabular Data for April 27, 2018
Time Temperature Dew Point Pressure Wind Wind Speed Wind Gust Humidity Rainfall Rate (Hourly)
-17.8 °C -17.8 °C 0 hPa Calm     Humidity % 0 mm
00:02 8.3 °C 6.4 °C 1023.9 hPa South 3.7 km/h 5.6 km/h 88 % 0 mm
00:07 8.3 °C 6.4 °C 1023.9 hPa South 3.5 km/h 5.6 km/h 88 % 0 mm
00:12 8.3 °C 6.4 °C 1023.9 hPa South 5.1 km/h 7.4 km/h 88 % 0 mm
00:17 8.3 °C 6.4 °C 1023.9 hPa South 6 km/h 7.4 km/h 88 % 0 mm
00:22 8.4 °C 6.5 °C 1023.9 hPa South 5 km/h 7.4 km/h 88 % 0 mm
00:27 8.3 °C 6.4 °C 1023.9 hPa South 2.3 km/h 5.6 km/h 88 % 0 mm
00:32 8.3 °C 6.4 °C 1023.9 hPa Calm     88 % 0 mm
00:37 8.2 °C 6.3 °C 1023.9 hPa South 6.4 km/h 11.3 km/h 88 % 0 mm
00:42 8.2 °C 6.3 °C 1023.9 hPa South 4 km/h 5.6 km/h 88 % 0 mm
00:47 8.1 °C 6.2 °C 1023.9 hPa South 1.1 km/h 3.7 km/h 88 % 0 mm
00:52 8 °C 6.1 °C 1023.9 hPa South 1.9 km/h 3.7 km/h 88 % 0 mm
00:57 7.9 °C 6 °C 1023.9 hPa South 0.8 km/h 3.7 km/h 88 % 0 mm
01:02 7.8 °C 5.9 °C 1023.9 hPa South 0.3 km/h 1.9 km/h 88 % 0 mm
01:07 7.7 °C 5.8 °C 1023.9 hPa South 0.5 km/h 1.9 km/h 88 % 0 mm
01:12 7.7 °C 6 °C 1023.9 hPa South 2.4 km/h 5.6 km/h 89 % 0 mm
01:17 7.7 °C 5.9 °C 1023.9 hPa South 2.7 km/h 3.7 km/h 89 % 0 mm
01:22 7.6 °C 5.8 °C 1024.3 hPa South 2.9 km/h 3.7 km/h 89 % 0 mm
01:27 7.5 °C 5.8 °C 1024.3 hPa South 1.8 km/h 3.7 km/h 89 % 0 mm
01:32 7.4 °C 5.7 °C 1024.3 hPa South 1.4 km/h 1.9 km/h 89 % 0 mm
01:37 7.4 °C 5.8 °C 1024.3 hPa South 1.9 km/h 3.7 km/h 90 % 0 mm
01:42 7.4 °C 5.9 °C 1024.3 hPa Calm   1.9 km/h 90 % 0 mm
01:47 7.4 °C 5.9 °C 1024.3 hPa Calm   1.9 km/h 90 % 0 mm
01:52 7.4 °C 5.8 °C 1024.3 hPa North 1.8 km/h 3.7 km/h 90 % 0 mm
01:57 7.2 °C 5.6 °C 1024.3 hPa Calm     90 % 0 mm
02:02 7.1 °C 5.6 °C 1024.3 hPa Calm     90 % 0 mm
02:07 7.1 °C 5.5 °C 1024.3 hPa Calm   3.7 km/h 90 % 0 mm
02:12 7 °C 5.6 °C 1024.3 hPa South 1.1 km/h 3.7 km/h 91 % 0 mm
02:17 6.9 °C 5.6 °C 1024.3 hPa Calm   1.9 km/h 91 % 0 mm
02:22 6.9 °C 5.6 °C 1024.3 hPa Calm     91 % 0 mm
02:27 6.9 °C 5.5 °C 1023.9 hPa Calm     91 % 0 mm
02:32 6.8 °C 5.4 °C 1023.9 hPa Calm     91 % 0 mm
02:37 6.7 °C 5.3 °C 1023.9 hPa Calm     91 % 0 mm
02:42 6.6 °C 5.2 °C 1024.3 hPa Calm     91 % 0 mm
02:47 6.3 °C 4.8 °C 1024.3 hPa Calm     90 % 0 mm
02:52 6.1 °C 4.6 °C 1024.3 hPa Calm     90 % 0 mm
02:57 5.8 °C 4.3 °C 1024.3 hPa Calm     90 % 0 mm
03:02 5.7 °C 4.3 °C 1024.3 hPa Calm     91 % 0 mm
03:07 5.7 °C 4.3 °C 1024.3 hPa Calm     91 % 0 mm
03:12 5.6 °C 4.3 °C 1024.3 hPa Calm     91 % 0 mm
03:17 5.6 °C 4.2 °C 1024.3 hPa Calm     91 % 0 mm
03:22 5.4 °C 4.1 °C 1024.3 hPa Calm     91 % 0 mm
03:27 5.2 °C 3.9 °C 1024.3 hPa Calm     91 % 0 mm
03:32 5.1 °C 3.7 °C 1024.3 hPa Calm     91 % 0 mm
03:37 4.9 °C 3.6 °C 1024.3 hPa Calm     91 % 0 mm
03:42 4.8 °C 3.7 °C 1024.3 hPa Calm     92 % 0 mm
03:47 4.8 °C 3.6 °C 1024.3 hPa Calm     92 % 0 mm
03:52 4.8 °C 3.6 °C 1024.3 hPa Calm     92 % 0 mm
03:57 4.7 °C 3.6 °C 1024.3 hPa Calm     92 % 0 mm
04:02 4.6 °C 3.4 °C 1024.3 hPa Calm     92 % 0 mm
04:07 4.5 °C 3.3 °C 1024.3 hPa Calm     92 % 0 mm
04:12 4.4 °C 3.3 °C 1024.3 hPa Calm     92 % 0 mm
04:17 4.4 °C 3.2 °C 1024.3 hPa Calm     92 % 0 mm
04:22 4.3 °C 3.1 °C 1024.3 hPa Calm     92 % 0 mm
04:27 4.1 °C 2.9 °C 1024.3 hPa Calm     92 % 0 mm
04:32 4.1 °C 2.9 °C 1024.3 hPa Calm     92 % 0 mm
04:37 4 °C 2.9 °C 1024.3 hPa Calm     93 % 0 mm
04:42 4 °C 2.9 °C 1024.3 hPa Calm     93 % 0 mm
04:43 4 °C 2.9 °C 1024.3 hPa Calm     93 % 0 mm
04:48 3.9 °C 2.9 °C 1024.6 hPa Calm     93 % 0 mm
04:57 3.9 °C 2.8 °C 1024.6 hPa Calm     93 % 0 mm
05:02 3.9 °C 2.8 °C 1024.6 hPa Calm     93 % 0 mm
05:07 3.9 °C 2.8 °C 1024.6 hPa Calm     93 % 0 mm
05:12 3.9 °C 2.8 °C 1024.6 hPa Calm     93 % 0 mm
05:17 3.9 °C 2.8 °C 1024.9 hPa Calm     93 % 0 mm
05:22 3.9 °C 2.8 °C 1024.9 hPa Calm     93 % 0 mm
05:27 3.8 °C 2.8 °C 1024.9 hPa Calm     93 % 0 mm
05:32 3.8 °C 2.8 °C 1024.9 hPa Calm     93 % 0 mm
05:37 3.8 °C 2.8 °C 1024.9 hPa Calm     93 % 0 mm
05:42 3.8 °C 2.8 °C 1024.9 hPa Calm     93 % 0 mm
05:48 3.8 °C 2.7 °C 1024.9 hPa Calm     93 % 0 mm
05:53 3.7 °C 2.7 °C 1025.3 hPa Calm     93 % 0 mm
05:58 3.7 °C 2.7 °C 1025.3 hPa Calm     93 % 0 mm
06:03 3.7 °C 2.7 °C 1025.3 hPa Calm     93 % 0 mm
06:05 3.7 °C 2.7 °C 1025.3 hPa Calm     93 % 0 mm
06:10 3.8 °C 2.9 °C 1025.3 hPa Calm     94 % 0 mm
06:15 3.8 °C 2.9 °C 1025.3 hPa Calm     94 % 0 mm
06:20 3.9 °C 3 °C 1025.3 hPa Calm     94 % 0 mm
06:25 4.1 °C 3.2 °C 1025.6 hPa Calm     94 % 0 mm
06:30 4.1 °C 3.2 °C 1025.6 hPa Calm     94 % 0 mm
06:35 4.2 °C 3.3 °C 1025.6 hPa Calm     94 % 0 mm
06:40 4.2 °C 3.3 °C 1025.6 hPa Calm     94 % 0 mm
06:45 4.2 °C 3.3 °C 1025.6 hPa Calm     94 % 0 mm
06:50 4.3 °C 3.4 °C 1025.6 hPa Calm     94 % 0 mm
06:55 4.3 °C 3.4 °C 1025.6 hPa Calm     94 % 0 mm
07:00 4.3 °C 3.4 °C 1025.6 hPa Calm     94 % 0 mm
07:05 4.4 °C 3.5 °C 1026 hPa Calm     94 % 0 mm
07:10 4.4 °C 3.6 °C 1026 hPa Calm     94 % 0 mm
07:15 4.5 °C 3.6 °C 1026 hPa Calm     94 % 0 mm
07:20 4.6 °C 3.8 °C 1026 hPa Calm     95 % 0 mm
07:25 4.6 °C 3.9 °C 1026 hPa Calm     95 % 0.25 mm
07:30 4.7 °C 4 °C 1026 hPa Calm     95 % 0.25 mm
07:35 4.8 °C 4.1 °C 1026 hPa Calm     95 % 0.25 mm
07:40 4.9 °C 4.2 °C 1026 hPa Calm     95 % 0.25 mm
07:45 5.1 °C 4.3 °C 1026 hPa Calm     95 % 0.25 mm
07:50 5.2 °C 4.5 °C 1026 hPa Calm     95 % 0.25 mm
07:55 5.3 °C 4.6 °C 1026.3 hPa Calm     95 % 0.25 mm
08:00 5.6 °C 4.9 °C 1026.3 hPa Calm     95 % 0.25 mm
08:05 5.8 °C 5.1 °C 1026.3 hPa Calm     95 % 0.25 mm
08:10 6.1 °C 5.5 °C 1026.3 hPa South 4.2 km/h 7.4 km/h 96 % 0.25 mm
08:15 6.4 °C 5.8 °C 1026.3 hPa South 3.5 km/h 5.6 km/h 96 % 0.25 mm
08:25 7.2 °C 6.6 °C 1026.3 hPa South 3.4 km/h 5.6 km/h 96 % 0 mm
08:30 7.7 °C 7.1 °C 1026.3 hPa South 4 km/h 8 km/h 96 % 0 mm
08:35 8.2 °C 7.6 °C 1026.3 hPa South 5.1 km/h 7.4 km/h 96 % 0 mm
08:40 8.7 °C 8.1 °C 1026.3 hPa South 3.1 km/h 5.6 km/h 96 % 0 mm
08:45 9.1 °C 8.4 °C 1026.3 hPa South 6.1 km/h 8 km/h 96 % 0 mm
08:50 9.3 °C 8.7 °C 1026.3 hPa South 5.6 km/h 7.4 km/h 96 % 0 mm
08:55 9.6 °C 9 °C 1026.3 hPa South 4.2 km/h 8 km/h 96 % 0 mm
09:00 9.8 °C 9.2 °C 1026.3 hPa South 9.2 km/h 12.9 km/h 96 % 0 mm
09:05 9.7 °C 8.9 °C 1026.3 hPa South 11.4 km/h 16.7 km/h 95 % 0 mm
09:10 9.8 °C 9.1 °C 1026.3 hPa South 7.2 km/h 11.1 km/h 95 % 0 mm
09:15 9.9 °C 8.9 °C 1026.3 hPa South 14.3 km/h 18.5 km/h 94 % 0 mm
09:20 10 °C 8.9 °C 1026.3 hPa South 10.5 km/h 13 km/h 93 % 0 mm
09:25 10.3 °C 9.1 °C 1026.3 hPa South 13 km/h 18.5 km/h 92 % 0 mm
09:30 10.6 °C 9.4 °C 1026.3 hPa South 9 km/h 14.5 km/h 92 % 0 mm
09:35 10.9 °C 9.6 °C 1026.3 hPa SSW 11.7 km/h 18.5 km/h 91 % 0 mm
09:45 11.4 °C 9.5 °C 1026.6 hPa South 9.3 km/h 16.1 km/h 88 % 0 mm
09:50 11.7 °C 9.6 °C 1026.6 hPa South 5 km/h 11.1 km/h 87 % 0 mm
09:55 11.9 °C 9.7 °C 1026.6 hPa SSW 10.9 km/h 16.7 km/h 86 % 0 mm
10:00 12.2 °C 9.7 °C 1026.6 hPa SSW 7.2 km/h 11.1 km/h 85 % 0 mm
10:05 12.3 °C 9.7 °C 1026.3 hPa SSE 9.8 km/h 14.8 km/h 84 % 0 mm
10:10 12.6 °C 9.6 °C 1026.3 hPa SE 20.6 km/h 24.1 km/h 82 % 0 mm
10:15 13.2 °C 9.6 °C 1026.3 hPa SSE 16.3 km/h 22.2 km/h 79 % 0 mm
10:20 13.5 °C 9.3 °C 1026.3 hPa SSE 13.7 km/h 18.5 km/h 76 % 0 mm
10:25 13.5 °C 9.2 °C 1026.3 hPa SE 14.2 km/h 20.4 km/h 75 % 0 mm
10:30 13.5 °C 8.8 °C 1026.3 hPa SSE 15.9 km/h 27.8 km/h 73 % 0 mm
10:35 13.5 °C 8.9 °C 1026.3 hPa SSE 17.5 km/h 29.6 km/h 74 % 0 mm
10:40 14 °C 9.2 °C 1026.3 hPa SE 12.7 km/h 22.2 km/h 73 % 0 mm
10:45 14.3 °C 8.7 °C 1026.3 hPa SE 12.4 km/h 25.9 km/h 69 % 0 mm
10:50 14.3 °C 8.7 °C 1026.3 hPa SE 12.9 km/h 18.5 km/h 69 % 0 mm
10:55 14.5 °C 8.4 °C 1026.3 hPa South 15.4 km/h 22.5 km/h 67 % 0 mm
11:00 14.5 °C 8.4 °C 1026.6 hPa South 17.1 km/h 24.1 km/h 67 % 0 mm
11:05 14.4 °C 8.6 °C 1026.6 hPa SE 12.1 km/h 16.7 km/h 68 % 0 mm
11:10 14.4 °C 8.4 °C 1026.6 hPa SSE 18.5 km/h 24.1 km/h 67 % 0 mm
11:15 14.4 °C 8.6 °C 1026.6 hPa SSE 10.9 km/h 22.2 km/h 68 % 0 mm
11:20 14.6 °C 8.7 °C 1026.3 hPa SE 8.9 km/h 16.7 km/h 68 % 0 mm
11:25 14.8 °C 9 °C 1026.3 hPa SE 13.8 km/h 24.1 km/h 68 % 0 mm
11:30 14.7 °C 8.7 °C 1026.3 hPa SSE 16.7 km/h 25.9 km/h 67 % 0 mm
11:36 14.8 °C 8.7 °C 1026.3 hPa SE 14 km/h 17.7 km/h 67 % 0 mm
11:41 15.1 °C 8.8 °C 1026.3 hPa SSE 10.6 km/h 16.7 km/h 66 % 0 mm
11:46 15.4 °C 8.4 °C 1026.3 hPa SE 10 km/h 27.8 km/h 63 % 0 mm
11:51 15.6 °C 8.6 °C 1026.3 hPa SSE 14.8 km/h 20.4 km/h 63 % 0 mm
11:56 15.6 °C 8.3 °C 1026.3 hPa SE 12.9 km/h 20.4 km/h 62 % 0 mm
12:01 15.7 °C 8.7 °C 1026.3 hPa SSE 10.6 km/h 18.5 km/h 63 % 0 mm
12:06 15.8 °C 8.5 °C 1026.3 hPa South 18.5 km/h 22.2 km/h 62 % 0 mm
12:11 15.7 °C 8.7 °C 1026.3 hPa SSE 11.9 km/h 18.5 km/h 63 % 0 mm
12:16 15.8 °C 8.5 °C 1026 hPa South 11.1 km/h 18.5 km/h 62 % 0 mm
12:21 15.9 °C 8.6 °C 1026 hPa South 11.3 km/h 17.7 km/h 62 % 0 mm
12:26 15.9 °C 8.4 °C 1026 hPa SE 15.1 km/h 27.8 km/h 61 % 0 mm
12:31 16.1 °C 8.8 °C 1026 hPa SSE 9 km/h 14.8 km/h 62 % 0 mm
12:36 16.4 °C 8.7 °C 1025.6 hPa SE 15.1 km/h 18.5 km/h 60 % 0 mm
12:41 16.7 °C 8.6 °C 1025.6 hPa SE 15.3 km/h 24.1 km/h 59 % 0 mm
12:46 16.5 °C 8.7 °C 1025.6 hPa South 11.3 km/h 20.9 km/h 60 % 0 mm
12:51 16.4 °C 8.7 °C 1025.6 hPa South 15.6 km/h 22.2 km/h 60 % 0 mm
12:56 16.5 °C 8.4 °C 1025.3 hPa South 9.5 km/h 22.5 km/h 59 % 0 mm
13:01 16.8 °C 8.4 °C 1025.3 hPa SSE 11.7 km/h 16.1 km/h 58 % 0 mm
13:06 16.7 °C 8.2 °C 1025.3 hPa SE 17.7 km/h 20.4 km/h 57 % 0 mm
13:11 16.7 °C 8.6 °C 1025.3 hPa South 14.3 km/h 20.9 km/h 59 % 0 mm
13:16 16.6 °C 8.5 °C 1024.9 hPa SSE 12.9 km/h 18.5 km/h 59 % 0 mm
13:21 16.8 °C 8.4 °C 1024.9 hPa South 16.3 km/h 24.1 km/h 58 % 0 mm
13:26 16.7 °C 8.7 °C 1024.9 hPa SSE 10.6 km/h 14.8 km/h 59 % 0 mm
13:31 16.8 °C 8.7 °C 1024.9 hPa SE 20.4 km/h 24.1 km/h 59 % 0 mm
13:36 16.8 °C 8.5 °C 1025.3 hPa SSE 11.7 km/h 16.7 km/h 58 % 0 mm
13:41 16.9 °C 8.4 °C 1024.9 hPa SSE 13 km/h 16.7 km/h 57 % 0 mm
13:46 16.9 °C 8.6 °C 1024.9 hPa South 9 km/h 14.8 km/h 58 % 0 mm
13:51 17 °C 8.7 °C 1024.9 hPa South 13.4 km/h 18.5 km/h 58 % 0 mm
13:56 17.1 °C 8.8 °C 1024.9 hPa SE 17.7 km/h 24.1 km/h 58 % 0 mm
14:01 17.2 °C 8.4 °C 1024.9 hPa SSE 19 km/h 24.1 km/h 56 % 0 mm
14:06 17 °C 8.4 °C 1024.9 hPa South 12.6 km/h 18.5 km/h 57 % 0 mm
14:11 17.1 °C 8.3 °C 1024.6 hPa SSE 16.1 km/h 20.4 km/h 56 % 0 mm
14:16 17.3 °C 8.4 °C 1024.6 hPa South 13.4 km/h 18.5 km/h 56 % 0 mm
14:21 17.3 °C 8.7 °C 1024.9 hPa SE 19.2 km/h 25.9 km/h 57 % 0 mm
14:26 17.3 °C 8.4 °C 1024.6 hPa SE 18.8 km/h 24.1 km/h 56 % 0 mm
14:31 17.4 °C 8.6 °C 1024.6 hPa South 12.6 km/h 18.5 km/h 56 % 0 mm
14:36 17.3 °C 8.2 °C 1024.6 hPa SE 14.8 km/h 20.4 km/h 55 % 0 mm
14:41 17.3 °C 8.2 °C 1024.6 hPa SSE 16.4 km/h 24.1 km/h 55 % 0 mm
14:46 17.2 °C 8.1 °C 1024.6 hPa SSE 13.4 km/h 18.5 km/h 55 % 0 mm
14:51 17.4 °C 8.3 °C 1024.6 hPa SE 14.2 km/h 27.8 km/h 55 % 0 mm
14:56 17.5 °C 8.3 °C 1024.6 hPa South 17.2 km/h 27.8 km/h 55 % 0 mm
15:01 17.3 °C 8.4 °C 1024.6 hPa SSE 8.9 km/h 16.1 km/h 56 % 0 mm
15:06 17.4 °C 8.6 °C 1024.6 hPa SE 16.3 km/h 22.2 km/h 56 % 0 mm
15:11 17.4 °C 8.6 °C 1024.6 hPa SSE 9.3 km/h 13 km/h 56 % 0 mm
15:16 17.5 °C 8.3 °C 1024.6 hPa SSE 11.1 km/h 18.5 km/h 55 % 0 mm
15:21 17.6 °C 8.4 °C 1024.6 hPa SE 12.7 km/h 22.5 km/h 55 % 0 mm
15:26 17.7 °C 8.5 °C 1024.6 hPa SSE 13 km/h 22.2 km/h 55 % 0 mm
15:31 17.5 °C 8.1 °C 1024.6 hPa SE 12.9 km/h 18.5 km/h 54 % 0 mm
15:36 17.6 °C 8.4 °C 1024.6 hPa South 10.9 km/h 18.5 km/h 55 % 0 mm
15:41 17.7 °C 8.5 °C 1024.6 hPa SSE 16.1 km/h 24.1 km/h 55 % 0 mm
15:46 17.7 °C 8.2 °C 1024.6 hPa South 10.8 km/h 18.5 km/h 54 % 0 mm
15:51 17.5 °C 8.1 °C 1024.6 hPa SE 13.8 km/h 22.2 km/h 54 % 0 mm
15:56 17.5 °C 8.3 °C 1024.6 hPa SSE 11.1 km/h 18.5 km/h 55 % 0 mm
16:01 17.6 °C 8.4 °C 1024.6 hPa SE 9.5 km/h 16.7 km/h 55 % 0 mm
16:06 17.5 °C 8.3 °C 1024.6 hPa South 10.3 km/h 14.8 km/h 55 % 0 mm
16:11 17.5 °C 8.3 °C 1024.6 hPa SSE 7.7 km/h 12.9 km/h 55 % 0 mm
16:16 17.5 °C 8.1 °C 1024.6 hPa SSE 14 km/h 18.5 km/h 54 % 0 mm
16:21 17.4 °C 8.3 °C 1024.6 hPa SSE 12.1 km/h 20.4 km/h 55 % 0 mm
16:26 17.4 °C 8.3 °C 1024.6 hPa SSE 7.1 km/h 16.7 km/h 55 % 0 mm
16:31 17.4 °C 8 °C 1024.6 hPa SE 10.9 km/h 16.1 km/h 54 % 0 mm
16:36 17.4 °C 8 °C 1024.6 hPa SSE 9.8 km/h 14.8 km/h 54 % 0 mm
16:41 17.3 °C 8.2 °C 1024.6 hPa SSE 10.5 km/h 24.1 km/h 55 % 0 mm
16:46 17.2 °C 8.1 °C 1024.9 hPa SSE 12.7 km/h 24.1 km/h 55 % 0 mm
16:51 17.1 °C 7.9 °C 1024.9 hPa SSE 8.5 km/h 11.1 km/h 55 % 0 mm
16:56 17 °C 7.9 °C 1024.9 hPa SSE 9.8 km/h 18.5 km/h 55 % 0 mm
17:01 16.9 °C 8.1 °C 1024.9 hPa SSE 7.1 km/h 14.8 km/h 56 % 0 mm
17:06 16.9 °C 8.1 °C 1024.9 hPa SSE 7.7 km/h 14.8 km/h 56 % 0 mm
17:11 16.8 °C 7.9 °C 1024.9 hPa South 8.9 km/h 17.7 km/h 56 % 0 mm
17:16 16.6 °C 7.8 °C 1024.9 hPa SSE 8.2 km/h 14.8 km/h 56 % 0 mm
17:21 16.5 °C 7.9 °C 1024.9 hPa SSW 12.1 km/h 14.8 km/h 57 % 0 mm
17:26 16.3 °C 8.1 °C 1024.9 hPa SSE 9.3 km/h 14.8 km/h 58 % 0 mm
17:31 16.1 °C 8.3 °C 1024.9 hPa SSE 7.6 km/h 16.7 km/h 60 % 0 mm
17:36 15.9 °C 8.1 °C 1024.9 hPa South 7.7 km/h 13 km/h 60 % 0 mm
17:41 15.7 °C 8.2 °C 1024.9 hPa SSE 6.3 km/h 13 km/h 61 % 0 mm
17:46 15.4 °C 8.4 °C 1024.9 hPa SSE 7.2 km/h 13 km/h 63 % 0 mm
17:51 15.2 °C 8.2 °C 1024.9 hPa South 6.8 km/h 11.1 km/h 63 % 0 mm
17:56 15 °C 8.2 °C 1024.9 hPa South 10.1 km/h 16.7 km/h 64 % 0 mm
18:01 14.9 °C 8.4 °C 1024.9 hPa SSE 8.5 km/h 13 km/h 65 % 0 mm
18:06 14.7 °C 8.2 °C 1024.9 hPa South 9.8 km/h 18.5 km/h 65 % 0 mm
18:11 14.5 °C 8.2 °C 1025.3 hPa South 10.3 km/h 14.8 km/h 66 % 0 mm
18:16 14.3 °C 8.3 °C 1025.3 hPa South 10.1 km/h 16.7 km/h 67 % 0 mm
18:21 14.2 °C 8.2 °C 1025.3 hPa South 9.5 km/h 18.5 km/h 67 % 0 mm
18:22 14.2 °C 8.1 °C 1025.3 hPa South 6 km/h 9.3 km/h 67 % 0 mm
18:27 14 °C 8.2 °C 1025.3 hPa South 7.9 km/h 16.7 km/h 68 % 0 mm
18:32 13.9 °C 8.1 °C 1025.3 hPa South 7.2 km/h 11.3 km/h 68 % 0 mm
18:37 13.7 °C 8.1 °C 1025.3 hPa South 5.8 km/h 12.9 km/h 69 % 0 mm
18:42 13.6 °C 8 °C 1025.3 hPa South 8.7 km/h 11.1 km/h 69 % 0 mm
18:47 13.4 °C 8.1 °C 1025.6 hPa South 7.4 km/h 12.9 km/h 70 % 0 mm
18:52 13.3 °C 8 °C 1025.6 hPa South 6 km/h 9.3 km/h 70 % 0 mm
18:57 13.2 °C 8.1 °C 1025.6 hPa South 8.4 km/h 9.7 km/h 71 % 0 mm
19:02 13.1 °C 8.1 °C 1026 hPa South 6.6 km/h 16.7 km/h 72 % 0 mm
19:07 12.9 °C 8 °C 1026 hPa South 6.8 km/h 11.1 km/h 72 % 0 mm
19:12 12.8 °C 7.9 °C 1026 hPa South 8.4 km/h 14.8 km/h 72 % 0 mm
19:17 12.8 °C 8.1 °C 1026 hPa South 4.7 km/h 7.4 km/h 73 % 0 mm
19:22 12.7 °C 7.9 °C 1026 hPa South 6.8 km/h 8 km/h 73 % 0 mm
19:27 12.6 °C 8.1 °C 1026 hPa South 6.8 km/h 11.1 km/h 74 % 0 mm
19:32 12.4 °C 7.9 °C 1026 hPa South 6 km/h 9.3 km/h 74 % 0 mm
19:37 12.3 °C 7.8 °C 1026 hPa South 5.6 km/h 14.8 km/h 74 % 0 mm
19:42 12.1 °C 7.8 °C 1026 hPa South 10.3 km/h 16.7 km/h 75 % 0 mm
19:47 12 °C 7.7 °C 1026 hPa South 7.7 km/h 11.3 km/h 75 % 0 mm
19:52 11.9 °C 7.6 °C 1026 hPa South 7.9 km/h 11.1 km/h 75 % 0 mm
20:02 11.7 °C 7.6 °C 1026.3 hPa South 4.5 km/h 5.6 km/h 76 % 0 mm
20:07 11.6 °C 7.4 °C 1026.3 hPa South 6.1 km/h 9.3 km/h 76 % 0 mm
20:12 11.4 °C 7.6 °C 1026.3 hPa South 6.4 km/h 13 km/h 77 % 0 mm
20:17 11.3 °C 7.4 °C 1026 hPa South 7.7 km/h 11.1 km/h 77 % 0 mm
20:22 11.2 °C 7.5 °C 1026.3 hPa South 6.8 km/h 13 km/h 78 % 0 mm
20:32 11 °C 7.5 °C 1026 hPa South 5.6 km/h 7.4 km/h 79 % 0 mm
20:37 10.9 °C 7.4 °C 1026.3 hPa South 6.9 km/h 11.1 km/h 79 % 0 mm
20:42 10.8 °C 7.3 °C 1026.3 hPa South 6.3 km/h 9.3 km/h 79 % 0 mm
20:47 10.8 °C 7.3 °C 1026.3 hPa South 7.6 km/h 11.1 km/h 79 % 0 mm
20:52 10.7 °C 7.2 °C 1026.3 hPa South 5.6 km/h 9.3 km/h 79 % 0 mm
20:57 10.7 °C 7.2 °C 1026.3 hPa South 4.8 km/h 7.4 km/h 79 % 0 mm
21:02 10.6 °C 7.3 °C 1026.3 hPa South 7.7 km/h 11.1 km/h 80 % 0 mm
21:07 10.6 °C 7.2 °C 1026.3 hPa South 3.9 km/h 5.6 km/h 80 % 0 mm
21:12 10.5 °C 7.2 °C 1026.3 hPa South 7.9 km/h 11.3 km/h 80 % 0 mm
21:13 10.5 °C 7.2 °C 1026.3 hPa South 10 km/h 11.3 km/h 80 % 0 mm
21:18 10.4 °C 7.3 °C 1026.6 hPa South 8 km/h 13 km/h 81 % 0 mm
21:23 10.4 °C 7.3 °C 1026.6 hPa South 7.9 km/h 16.7 km/h 81 % 0 mm
21:28 10.3 °C 7.2 °C 1026.6 hPa South 6.9 km/h 11.1 km/h 81 % 0 mm
21:33 10.2 °C 7.1 °C 1026.6 hPa South 6.6 km/h 11.3 km/h 81 % 0 mm
21:38 10.1 °C 7 °C 1026.6 hPa South 7.2 km/h 11.1 km/h 81 % 0 mm
21:43 10.1 °C 7.1 °C 1026.6 hPa South 9.5 km/h 13 km/h 82 % 0 mm
21:48 10 °C 7.1 °C 1026.6 hPa South 8.5 km/h 11.1 km/h 82 % 0 mm
21:53 10 °C 7.1 °C 1026.6 hPa South 3.2 km/h 7.4 km/h 82 % 0 mm
21:58 9.9 °C 6.9 °C 1026.6 hPa South 4.7 km/h 9.3 km/h 82 % 0 mm
22:03 9.8 °C 7 °C 1026.6 hPa South 7.4 km/h 11.1 km/h 83 % 0 mm
22:08 9.8 °C 7 °C 1026.6 hPa South 4.3 km/h 7.4 km/h 83 % 0 mm
22:13 9.7 °C 7 °C 1026.6 hPa South 5.8 km/h 7.4 km/h 83 % 0 mm
22:18 9.7 °C 6.9 °C 1026.6 hPa South 2.7 km/h 7.4 km/h 83 % 0 mm
22:23 9.6 °C 7.1 °C 1026.6 hPa South 7.2 km/h 7.4 km/h 84 % 0 mm
22:28 9.6 °C 7 °C 1026.3 hPa South 6 km/h 7.4 km/h 84 % 0 mm
22:31 9.5 °C 6.9 °C 1026.3 hPa South 6.6 km/h 8 km/h 84 % 0 mm
22:36 9.4 °C 6.8 °C 1026.3 hPa South 8.7 km/h 13 km/h 84 % 0 mm
22:41 9.4 °C 7 °C 1026.3 hPa South 8.4 km/h 11.1 km/h 85 % 0 mm
22:46 9.4 °C 7 °C 1026.3 hPa South 9.8 km/h 13 km/h 85 % 0 mm
22:51 9.4 °C 7 °C 1026.3 hPa South 9.3 km/h 11.1 km/h 85 % 0 mm
22:56 9.4 °C 7.2 °C 1026.3 hPa South 9 km/h 13 km/h 86 % 0 mm
23:01 9.4 °C 7.2 °C 1026.3 hPa South 7.6 km/h 11.3 km/h 86 % 0 mm
23:06 9.6 °C 7.3 °C 1026.3 hPa South 3.5 km/h 9.3 km/h 86 % 0 mm
23:11 9.6 °C 7.4 °C 1026.3 hPa South 5.6 km/h 9.3 km/h 86 % 0 mm
23:16 9.6 °C 7.3 °C 1026.3 hPa South 4.8 km/h 9.3 km/h 86 % 0 mm
23:21 9.6 °C 7.6 °C 1026.3 hPa South 6 km/h 11.1 km/h 87 % 0 mm
23:26 9.6 °C 7.6 °C 1026 hPa South 7.1 km/h 11.1 km/h 87 % 0 mm
23:31 9.6 °C 7.5 °C 1026.3 hPa South 5.5 km/h 9.7 km/h 87 % 0 mm
23:36 9.6 °C 7.7 °C 1026 hPa South 6.8 km/h 14.8 km/h 88 % 0 mm
23:41 9.6 °C 7.7 °C 1026.3 hPa South 8.2 km/h 13 km/h 88 % 0 mm
23:48 9.6 °C 7.7 °C 1026.3 hPa South 7.2 km/h 12.9 km/h 88 % 0 mm
23:53 9.6 °C 7.7 °C 1026.3 hPa South 5.6 km/h 9.3 km/h 88 % 0 mm
Ararat Weather
Compliments of Weather Underground - 2.25 mb
Click here to send mail.


ABOUT

Live weather data from Ararat, Victoria, Australia, 3377
Data uploaded from Cumulus every 5 minutes to Weather Underground.
This site then downloads the raw data for formatting and display.
Metric and imperial data can be displayed. Graphs and historical data available.
Includes Sun and Moon times and rain image live from BOM.

Check out Ararat Weather on Facebook, Twitter and Google +

Help support ongoing costs by checking out the ads





Follow @AraratWeather